sensor_id;sensor_type;location;lat;lon;timestamp;P1;durP1;ratioP1;P2;durP2;ratioP2
50563;SDS011;36514;52.590;21.448;2023-03-01T07:46:46;47.03;;;25.65;;
50563;SDS011;36514;52.590;21.448;2023-03-01T07:56:57;41.85;;;25.30;;
50563;SDS011;36514;52.590;21.448;2023-03-01T08:07:06;45.64;;;23.93;;
50563;SDS011;36514;52.590;21.448;2023-03-01T08:17:09;44.28;;;23.75;;
50563;SDS011;36514;52.590;21.448;2023-03-01T08:27:12;46.43;;;27.90;;
50563;SDS011;36514;52.590;21.448;2023-03-01T08:37:19;38.46;;;22.60;;
50563;SDS011;36514;52.590;21.448;2023-03-01T08:47:23;40.90;;;25.27;;
50563;SDS011;36514;52.590;21.448;2023-03-01T08:57:33;39.86;;;25.45;;
50563;SDS011;36514;52.590;21.448;2023-03-01T09:07:43;42.21;;;25.05;;
50563;SDS011;36514;52.590;21.448;2023-03-01T09:17:50;36.94;;;21.79;;
50563;SDS011;36514;52.590;21.448;2023-03-01T09:27:56;34.13;;;22.02;;
50563;SDS011;36514;52.590;21.448;2023-03-01T09:38:05;30.02;;;20.31;;
50563;SDS011;36514;52.590;21.448;2023-03-01T09:48:13;31.40;;;21.05;;
50563;SDS011;36514;52.590;21.448;2023-03-01T09:58:29;24.87;;;16.49;;
50563;SDS011;36514;52.590;21.448;2023-03-01T10:08:56;28.44;;;17.31;;
50563;SDS011;36514;52.590;21.448;2023-03-01T10:19:00;26.33;;;17.15;;
50563;SDS011;36514;52.590;21.448;2023-03-01T10:29:09;29.55;;;17.85;;
50563;SDS011;36514;52.590;21.448;2023-03-01T10:39:24;30.36;;;17.15;;
50563;SDS011;36514;52.590;21.448;2023-03-01T10:49:23;23.29;;;15.83;;
50563;SDS011;36514;52.590;21.448;2023-03-01T10:59:31;24.35;;;16.32;;
50563;SDS011;36514;52.590;21.448;2023-03-01T11:09:26;28.38;;;19.19;;
50563;SDS011;36514;52.590;21.448;2023-03-01T11:19:49;23.06;;;16.35;;
50563;SDS011;36514;52.590;21.448;2023-03-01T11:29:59;34.20;;;17.50;;
50563;SDS011;36514;52.590;21.448;2023-03-01T11:40:05;29.07;;;17.30;;
50563;SDS011;36514;52.590;21.448;2023-03-01T12:11:15;25.17;;;17.66;;
50563;SDS011;36514;52.590;21.448;2023-03-01T12:31:57;25.51;;;17.80;;
50563;SDS011;36514;52.590;21.448;2023-03-01T12:42:13;23.91;;;16.33;;
50563;SDS011;36514;52.590;21.448;2023-03-01T13:02:45;25.99;;;15.99;;
50563;SDS011;36514;52.590;21.448;2023-03-01T13:12:52;23.61;;;16.67;;
50563;SDS011;36514;52.590;21.448;2023-03-01T13:23:10;25.87;;;17.99;;
50563;SDS011;36514;52.590;21.448;2023-03-01T13:43:25;27.11;;;18.85;;
50563;SDS011;36514;52.590;21.448;2023-03-01T13:53:35;29.98;;;18.07;;
50563;SDS011;36514;52.590;21.448;2023-03-01T14:03:41;28.45;;;20.10;;
50563;SDS011;36514;52.590;21.448;2023-03-01T14:14:04;31.23;;;20.53;;
50563;SDS011;36514;52.590;21.448;2023-03-01T14:24:04;30.04;;;20.80;;
50563;SDS011;36514;52.590;21.448;2023-03-01T14:33:56;27.62;;;18.73;;
50563;SDS011;36514;52.590;21.448;2023-03-01T14:44:05;26.95;;;18.14;;
50563;SDS011;36514;52.590;21.448;2023-03-01T15:04:35;29.23;;;18.00;;
50563;SDS011;36514;52.590;21.448;2023-03-01T15:14:40;25.97;;;17.92;;
50563;SDS011;36514;52.590;21.448;2023-03-01T15:24:39;37.42;;;22.01;;
